sensor_id;sensor_type;location;lat;lon;timestamp;temperature;humidity
21678;DHT22;11000;50.360;7.582;2024-02-28T00:00:16;5.90;99.90
21678;DHT22;11000;50.360;7.582;2024-02-28T00:02:37;5.90;99.90
21678;DHT22;11000;50.360;7.582;2024-02-28T00:04:57;5.90;99.90
21678;DHT22;11000;50.360;7.582;2024-02-28T00:07:20;5.90;99.90
21678;DHT22;11000;50.360;7.582;2024-02-28T00:09:41;5.90;99.90
21678;DHT22;11000;50.360;7.582;2024-02-28T00:12:01;5.90;99.90
21678;DHT22;11000;50.360;7.582;2024-02-28T00:14:22;5.90;99.90
21678;DHT22;11000;50.360;7.582;2024-02-28T00:16:46;6.00;99.90
21678;DHT22;11000;50.360;7.582;2024-02-28T00:19:06;5.90;99.90
21678;DHT22;11000;50.360;7.582;2024-02-28T00:21:27;5.90;99.90
21678;DHT22;11000;50.360;7.582;2024-02-28T00:23:47;5.90;99.90
21678;DHT22;11000;50.360;7.582;2024-02-28T00:26:08;5.90;99.90
21678;DHT22;11000;50.360;7.582;2024-02-28T00:28:28;5.80;99.90
21678;DHT22;11000;50.360;7.582;2024-02-28T00:30:49;5.90;99.90
21678;DHT22;11000;50.360;7.582;2024-02-28T00:33:09;5.90;99.90
21678;DHT22;11000;50.360;7.582;2024-02-28T00:35:32;6.00;99.90
21678;DHT22;11000;50.360;7.582;2024-02-28T00:37:55;5.90;99.90
21678;DHT22;11000;50.360;7.582;2024-02-28T00:40:15;5.90;99.90
21678;DHT22;11000;50.360;7.582;2024-02-28T00:42:36;5.90;99.90
21678;DHT22;11000;50.360;7.582;2024-02-28T00:44:56;5.90;99.90
21678;DHT22;11000;50.360;7.582;2024-02-28T00:47:17;6.00;99.90
21678;DHT22;11000;50.360;7.582;2024-02-28T00:49:38;5.90;99.90
21678;DHT22;11000;50.360;7.582;2024-02-28T00:51:58;5.90;99.90
21678;DHT22;11000;50.360;7.582;2024-02-28T00:54:19;5.90;99.90
21678;DHT22;11000;50.360;7.582;2024-02-28T00:56:42;5.90;99.90
21678;DHT22;11000;50.360;7.582;2024-02-28T00:59:02;5.90;99.90
21678;DHT22;11000;50.360;7.582;2024-02-28T01:01:23;5.90;99.90
21678;DHT22;11000;50.360;7.582;2024-02-28T01:03:43;6.00;99.90
21678;DHT22;11000;50.360;7.582;2024-02-28T01:06:04;6.00;99.90
21678;DHT22;11000;50.360;7.582;2024-02-28T01:08:24;6.00;99.90
21678;DHT22;11000;50.360;7.582;2024-02-28T01:10:45;6.00;99.90
21678;DHT22;11000;50.360;7.582;2024-02-28T01:13:06;6.00;99.90
21678;DHT22;11000;50.360;7.582;2024-02-28T01:15:26;6.00;99.90
21678;DHT22;11000;50.360;7.582;2024-02-28T01:17:47;6.00;99.90
21678;DHT22;11000;50.360;7.582;2024-02-28T01:20:08;6.00;99.90
21678;DHT22;11000;50.360;7.582;2024-02-28T01:22:28;5.90;99.90
21678;DHT22;11000;50.360;7.582;2024-02-28T01:24:49;5.90;99.90
21678;DHT22;11000;50.360;7.582;2024-02-28T01:27:10;5.90;99.90
21678;DHT22;11000;50.360;7.582;2024-02-28T01:29:30;5.80;99.90
21678;DHT22;11000;50.360;7.582;2024-02-28T01:31:51;5.90;99.90
21678;DHT22;11000;50.360;7.582;2024-02-28T01:34:11;5.80;99.90
21678;DHT22;11000;50.360;7.582;2024-02-28T01:36:32;5.70;99.90
21678;DHT22;11000;50.360;7.582;2024-02-28T01:38:52;5.60;99.90
21678;DHT22;11000;50.360;7.582;2024-02-28T01:41:13;5.60;99.90
21678;DHT22;11000;50.360;7.582;2024-02-28T01:43:33;5.50;99.90
21678;DHT22;11000;50.360;7.582;2024-02-28T01:45:54;5.60;99.90
21678;DHT22;11000;50.360;7.582;2024-02-28T01:48:15;5.60;99.90
21678;DHT22;11000;50.360;7.582;2024-02-28T01:50:36;5.60;99.90
21678;DHT22;11000;50.360;7.582;2024-02-28T01:52:58;5.70;99.90
21678;DHT22;11000;50.360;7.582;2024-02-28T01:55:18;5.60;99.90
21678;DHT22;11000;50.360;7.582;2024-02-28T01:57:39;5.70;99.90
21678;DHT22;11000;50.360;7.582;2024-02-28T02:00:00;5.70;99.90
21678;DHT22;11000;50.360;7.582;2024-02-28T02:02:20;5.70;99.90
21678;DHT22;11000;50.360;7.582;2024-02-28T02:04:41;5.70;99.90
21678;DHT22;11000;50.360;7.582;2024-02-28T02:07:02;5.70;99.90
21678;DHT22;11000;50.360;7.582;2024-02-28T02:09:22;5.70;99.90
21678;DHT22;11000;50.360;7.582;2024-02-28T02:11:43;5.70;99.90
21678;DHT22;11000;50.360;7.582;2024-02-28T02:14:03;5.70;99.90
21678;DHT22;11000;50.360;7.582;2024-02-28T02:16:24;5.70;99.90
21678;DHT22;11000;50.360;7.582;2024-02-28T02:18:47;5.70;99.90
21678;DHT22;11000;50.360;7.582;2024-02-28T02:21:08;5.80;99.90
21678;DHT22;11000;50.360;7.582;2024-02-28T02:23:31;5.70;99.90
21678;DHT22;11000;50.360;7.582;2024-02-28T02:25:52;5.80;99.90
21678;DHT22;11000;50.360;7.582;2024-02-28T02:28:13;5.80;99.90
21678;DHT22;11000;50.360;7.582;2024-02-28T02:30:35;5.80;99.90
21678;DHT22;11000;50.360;7.582;2024-02-28T02:32:55;5.80;99.90
21678;DHT22;11000;50.360;7.582;2024-02-28T02:35:16;5.80;99.90
21678;DHT22;11000;50.360;7.582;2024-02-28T02:37:36;5.80;99.90
21678;DHT22;11000;50.360;7.582;2024-02-28T02:39:57;5.80;99.90
21678;DHT22;11000;50.360;7.582;2024-02-28T02:42:17;5.80;99.90
21678;DHT22;11000;50.360;7.582;2024-02-28T02:44:38;5.80;99.90
21678;DHT22;11000;50.360;7.582;2024-02-28T02:46:58;5.80;99.90
21678;DHT22;11000;50.360;7.582;2024-02-28T02:49:19;5.70;99.90
21678;DHT22;11000;50.360;7.582;2024-02-28T02:51:39;5.70;99.90
21678;DHT22;11000;50.360;7.582;2024-02-28T02:54:02;5.70;99.90
21678;DHT22;11000;50.360;7.582;2024-02-28T02:56:23;5.60;99.90
21678;DHT22;11000;50.360;7.582;2024-02-28T02:58:43;5.50;99.90
21678;DHT22;11000;50.360;7.582;2024-02-28T03:01:04;5.60;99.90
21678;DHT22;11000;50.360;7.582;2024-02-28T03:03:24;5.50;99.90
21678;DHT22;11000;50.360;7.582;2024-02-28T03:05:45;5.60;99.90
21678;DHT22;11000;50.360;7.582;2024-02-28T03:08:05;5.50;99.90
21678;DHT22;11000;50.360;7.582;2024-02-28T03:10:26;5.50;99.90
21678;DHT22;11000;50.360;7.582;2024-02-28T03:12:46;5.50;99.90
21678;DHT22;11000;50.360;7.582;2024-02-28T03:15:07;5.60;99.90
21678;DHT22;11000;50.360;7.582;2024-02-28T03:17:27;5.60;99.90
21678;DHT22;11000;50.360;7.582;2024-02-28T03:19:48;5.60;99.90
21678;DHT22;11000;50.360;7.582;2024-02-28T03:22:08;5.60;99.90
21678;DHT22;11000;50.360;7.582;2024-02-28T03:24:29;5.60;99.90
21678;DHT22;11000;50.360;7.582;2024-02-28T03:26:49;5.60;99.90
21678;DHT22;11000;50.360;7.582;2024-02-28T03:29:10;5.60;99.90
21678;DHT22;11000;50.360;7.582;2024-02-28T03:31:30;5.60;99.90
21678;DHT22;11000;50.360;7.582;2024-02-28T03:33:51;5.50;99.90
21678;DHT22;11000;50.360;7.582;2024-02-28T03:36:11;5.40;99.90
21678;DHT22;11000;50.360;7.582;2024-02-28T03:38:32;5.50;99.90
21678;DHT22;11000;50.360;7.582;2024-02-28T03:40:52;5.40;99.90
21678;DHT22;11000;50.360;7.582;2024-02-28T03:43:13;5.50;99.90
21678;DHT22;11000;50.360;7.582;2024-02-28T03:45:37;5.40;99.90
21678;DHT22;11000;50.360;7.582;2024-02-28T03:47:58;5.40;99.90
21678;DHT22;11000;50.360;7.582;2024-02-28T03:50:19;5.40;99.90
21678;DHT22;11000;50.360;7.582;2024-02-28T03:52:39;5.40;99.90
21678;DHT22;11000;50.360;7.582;2024-02-28T03:55:00;5.30;99.90
21678;DHT22;11000;50.360;7.582;2024-02-28T03:57:20;5.40;99.90
21678;DHT22;11000;50.360;7.582;2024-02-28T03:59:41;5.50;99.90
21678;DHT22;11000;50.360;7.582;2024-02-28T04:02:02;5.50;99.90
21678;DHT22;11000;50.360;7.582;2024-02-28T04:04:22;5.50;99.90
21678;DHT22;11000;50.360;7.582;2024-02-28T04:06:43;5.50;99.90
21678;DHT22;11000;50.360;7.582;2024-02-28T04:09:03;5.50;99.90
21678;DHT22;11000;50.360;7.582;2024-02-28T04:11:24;5.50;99.90
21678;DHT22;11000;50.360;7.582;2024-02-28T04:13:44;5.50;99.90
21678;DHT22;11000;50.360;7.582;2024-02-28T04:16:05;5.40;99.90
21678;DHT22;11000;50.360;7.582;2024-02-28T04:18:26;5.40;99.90
21678;DHT22;11000;50.360;7.582;2024-02-28T04:20:46;5.40;99.90
21678;DHT22;11000;50.360;7.582;2024-02-28T04:23:07;5.40;99.90
21678;DHT22;11000;50.360;7.582;2024-02-28T04:25:27;5.40;99.90
21678;DHT22;11000;50.360;7.582;2024-02-28T04:27:47;5.50;99.90
21678;DHT22;11000;50.360;7.582;2024-02-28T04:30:08;5.50;99.90
21678;DHT22;11000;50.360;7.582;2024-02-28T04:32:29;5.50;99.90
21678;DHT22;11000;50.360;7.582;2024-02-28T04:34:49;5.40;99.90
21678;DHT22;11000;50.360;7.582;2024-02-28T04:37:11;5.50;99.90
21678;DHT22;11000;50.360;7.582;2024-02-28T04:39:31;5.50;99.90
21678;DHT22;11000;50.360;7.582;2024-02-28T04:41:52;5.50;99.90
21678;DHT22;11000;50.360;7.582;2024-02-28T04:44:12;5.40;99.90
21678;DHT22;11000;50.360;7.582;2024-02-28T04:46:37;5.50;99.90
21678;DHT22;11000;50.360;7.582;2024-02-28T04:48:58;5.50;99.90
21678;DHT22;11000;50.360;7.582;2024-02-28T04:51:18;5.50;99.90
21678;DHT22;11000;50.360;7.582;2024-02-28T04:53:39;5.50;99.90
21678;DHT22;11000;50.360;7.582;2024-02-28T04:56:00;5.40;99.90
21678;DHT22;11000;50.360;7.582;2024-02-28T04:58:20;5.50;99.90
21678;DHT22;11000;50.360;7.582;2024-02-28T05:00:41;5.40;99.90
21678;DHT22;11000;50.360;7.582;2024-02-28T05:03:01;5.30;99.90
21678;DHT22;11000;50.360;7.582;2024-02-28T05:05:22;5.30;99.90
21678;DHT22;11000;50.360;7.582;2024-02-28T05:07:42;5.30;99.90
21678;DHT22;11000;50.360;7.582;2024-02-28T05:10:03;5.30;99.90
21678;DHT22;11000;50.360;7.582;2024-02-28T05:12:23;5.30;99.90
21678;DHT22;11000;50.360;7.582;2024-02-28T05:14:44;5.30;99.90
21678;DHT22;11000;50.360;7.582;2024-02-28T05:17:05;5.30;99.90
21678;DHT22;11000;50.360;7.582;2024-02-28T05:19:26;5.40;99.90
21678;DHT22;11000;50.360;7.582;2024-02-28T05:21:46;5.40;99.90
21678;DHT22;11000;50.360;7.582;2024-02-28T05:24:08;5.40;99.90
21678;DHT22;11000;50.360;7.582;2024-02-28T05:26:29;5.40;99.90
21678;DHT22;11000;50.360;7.582;2024-02-28T05:28:51;5.50;99.90
21678;DHT22;11000;50.360;7.582;2024-02-28T05:31:25;5.50;99.90
21678;DHT22;11000;50.360;7.582;2024-02-28T05:33:46;5.50;99.90
21678;DHT22;11000;50.360;7.582;2024-02-28T05:36:07;5.50;99.90
21678;DHT22;11000;50.360;7.582;2024-02-28T05:38:28;5.50;99.90
21678;DHT22;11000;50.360;7.582;2024-02-28T05:40:49;5.50;99.90
21678;DHT22;11000;50.360;7.582;2024-02-28T05:43:09;5.40;99.90
21678;DHT22;11000;50.360;7.582;2024-02-28T05:45:30;5.30;99.90
21678;DHT22;11000;50.360;7.582;2024-02-28T05:47:50;5.20;99.90
21678;DHT22;11000;50.360;7.582;2024-02-28T05:50:11;5.20;99.90
21678;DHT22;11000;50.360;7.582;2024-02-28T05:52:33;5.20;99.90
21678;DHT22;11000;50.360;7.582;2024-02-28T05:54:53;5.30;99.90
21678;DHT22;11000;50.360;7.582;2024-02-28T05:57:14;5.40;99.90
21678;DHT22;11000;50.360;7.582;2024-02-28T05:59:34;5.40;99.90
21678;DHT22;11000;50.360;7.582;2024-02-28T06:01:55;5.40;99.90
21678;DHT22;11000;50.360;7.582;2024-02-28T06:04:16;5.30;99.90
21678;DHT22;11000;50.360;7.582;2024-02-28T06:06:36;5.30;99.90
21678;DHT22;11000;50.360;7.582;2024-02-28T06:08:57;5.30;99.90
21678;DHT22;11000;50.360;7.582;2024-02-28T06:11:17;5.30;99.90
21678;DHT22;11000;50.360;7.582;2024-02-28T06:13:40;5.40;99.90
21678;DHT22;11000;50.360;7.582;2024-02-28T06:16:01;5.30;99.90
21678;DHT22;11000;50.360;7.582;2024-02-28T06:18:23;5.30;99.90
21678;DHT22;11000;50.360;7.582;2024-02-28T06:20:44;5.30;99.90
21678;DHT22;11000;50.360;7.582;2024-02-28T06:23:04;5.30;99.90
21678;DHT22;11000;50.360;7.582;2024-02-28T06:25:25;5.30;99.90
21678;DHT22;11000;50.360;7.582;2024-02-28T06:27:48;5.40;99.90
21678;DHT22;11000;50.360;7.582;2024-02-28T06:30:08;5.30;99.90
21678;DHT22;11000;50.360;7.582;2024-02-28T06:32:29;5.40;99.90
21678;DHT22;11000;50.360;7.582;2024-02-28T06:34:50;5.40;99.90
21678;DHT22;11000;50.360;7.582;2024-02-28T06:37:10;5.40;99.90
21678;DHT22;11000;50.360;7.582;2024-02-28T06:39:31;5.40;99.90
21678;DHT22;11000;50.360;7.582;2024-02-28T06:41:52;5.40;99.90
21678;DHT22;11000;50.360;7.582;2024-02-28T06:44:12;5.40;99.90
21678;DHT22;11000;50.360;7.582;2024-02-28T06:46:33;5.40;99.90
21678;DHT22;11000;50.360;7.582;2024-02-28T06:48:53;5.40;99.90
21678;DHT22;11000;50.360;7.582;2024-02-28T06:51:16;5.30;99.90
21678;DHT22;11000;50.360;7.582;2024-02-28T06:53:37;5.30;99.90
21678;DHT22;11000;50.360;7.582;2024-02-28T06:55:58;5.30;99.90
21678;DHT22;11000;50.360;7.582;2024-02-28T06:58:18;5.30;99.90
21678;DHT22;11000;50.360;7.582;2024-02-28T07:00:39;5.30;99.90
21678;DHT22;11000;50.360;7.582;2024-02-28T07:02:59;5.30;99.90
21678;DHT22;11000;50.360;7.582;2024-02-28T07:05:20;5.10;99.90
21678;DHT22;11000;50.360;7.582;2024-02-28T07:07:40;5.20;99.90
21678;DHT22;11000;50.360;7.582;2024-02-28T07:10:03;5.20;99.90
21678;DHT22;11000;50.360;7.582;2024-02-28T07:12:24;5.20;99.90
21678;DHT22;11000;50.360;7.582;2024-02-28T07:14:45;5.20;99.90
21678;DHT22;11000;50.360;7.582;2024-02-28T07:17:05;5.30;99.90
21678;DHT22;11000;50.360;7.582;2024-02-28T07:19:27;5.20;99.90
21678;DHT22;11000;50.360;7.582;2024-02-28T07:21:47;5.30;99.90
21678;DHT22;11000;50.360;7.582;2024-02-28T07:24:08;5.30;99.90
21678;DHT22;11000;50.360;7.582;2024-02-28T07:26:28;5.30;99.90
21678;DHT22;11000;50.360;7.582;2024-02-28T07:28:49;5.40;99.90
21678;DHT22;11000;50.360;7.582;2024-02-28T07:31:27;5.40;99.90
21678;DHT22;11000;50.360;7.582;2024-02-28T07:33:48;5.40;99.90
21678;DHT22;11000;50.360;7.582;2024-02-28T07:36:09;5.20;99.90
21678;DHT22;11000;50.360;7.582;2024-02-28T07:38:30;5.20;99.90
21678;DHT22;11000;50.360;7.582;2024-02-28T07:40:50;5.30;99.90
21678;DHT22;11000;50.360;7.582;2024-02-28T07:43:11;5.30;99.90
21678;DHT22;11000;50.360;7.582;2024-02-28T07:45:32;5.30;99.90
21678;DHT22;11000;50.360;7.582;2024-02-28T07:47:52;5.30;99.90
21678;DHT22;11000;50.360;7.582;2024-02-28T07:50:13;5.40;99.90
21678;DHT22;11000;50.360;7.582;2024-02-28T07:52:33;5.30;99.90
21678;DHT22;11000;50.360;7.582;2024-02-28T07:54:57;5.30;99.90
21678;DHT22;11000;50.360;7.582;2024-02-28T07:57:18;5.30;99.90
21678;DHT22;11000;50.360;7.582;2024-02-28T07:59:42;5.40;99.90
21678;DHT22;11000;50.360;7.582;2024-02-28T08:02:03;5.50;99.90
21678;DHT22;11000;50.360;7.582;2024-02-28T08:04:23;5.50;99.90
21678;DHT22;11000;50.360;7.582;2024-02-28T08:06:44;5.50;99.90
21678;DHT22;11000;50.360;7.582;2024-02-28T08:09:05;5.60;99.90
21678;DHT22;11000;50.360;7.582;2024-02-28T08:11:25;5.60;99.90
21678;DHT22;11000;50.360;7.582;2024-02-28T08:13:46;5.60;99.90
21678;DHT22;11000;50.360;7.582;2024-02-28T08:16:06;5.60;99.90
21678;DHT22;11000;50.360;7.582;2024-02-28T08:18:29;5.60;99.90
21678;DHT22;11000;50.360;7.582;2024-02-28T08:20:49;5.50;99.90
21678;DHT22;11000;50.360;7.582;2024-02-28T08:23:10;5.50;99.90
21678;DHT22;11000;50.360;7.582;2024-02-28T08:25:30;5.50;99.90
21678;DHT22;11000;50.360;7.582;2024-02-28T08:27:51;5.50;99.90
21678;DHT22;11000;50.360;7.582;2024-02-28T08:30:12;5.50;99.90
21678;DHT22;11000;50.360;7.582;2024-02-28T08:32:33;5.60;99.90
21678;DHT22;11000;50.360;7.582;2024-02-28T08:34:54;5.60;99.90
21678;DHT22;11000;50.360;7.582;2024-02-28T08:37:15;5.70;99.90
21678;DHT22;11000;50.360;7.582;2024-02-28T08:39:36;5.70;99.90
21678;DHT22;11000;50.360;7.582;2024-02-28T08:41:56;5.70;99.90
21678;DHT22;11000;50.360;7.582;2024-02-28T08:44:17;5.80;99.90
21678;DHT22;11000;50.360;7.582;2024-02-28T08:46:38;5.80;99.90
21678;DHT22;11000;50.360;7.582;2024-02-28T08:48:58;5.80;99.90
21678;DHT22;11000;50.360;7.582;2024-02-28T08:51:19;5.80;99.90
21678;DHT22;11000;50.360;7.582;2024-02-28T08:53:39;5.70;99.90
21678;DHT22;11000;50.360;7.582;2024-02-28T08:56:00;5.70;99.90
21678;DHT22;11000;50.360;7.582;2024-02-28T08:58:20;5.80;99.90
21678;DHT22;11000;50.360;7.582;2024-02-28T09:00:41;5.80;99.90
21678;DHT22;11000;50.360;7.582;2024-02-28T09:03:01;5.80;99.90
21678;DHT22;11000;50.360;7.582;2024-02-28T09:05:22;5.80;99.90
21678;DHT22;11000;50.360;7.582;2024-02-28T09:07:43;5.80;99.90
21678;DHT22;11000;50.360;7.582;2024-02-28T09:10:04;5.80;99.90
21678;DHT22;11000;50.360;7.582;2024-02-28T09:12:28;5.70;99.90
21678;DHT22;11000;50.360;7.582;2024-02-28T09:14:48;5.60;99.90
21678;DHT22;11000;50.360;7.582;2024-02-28T09:17:15;5.70;99.90
21678;DHT22;11000;50.360;7.582;2024-02-28T09:19:35;5.70;99.90
21678;DHT22;11000;50.360;7.582;2024-02-28T09:21:56;5.70;99.90
21678;DHT22;11000;50.360;7.582;2024-02-28T09:24:17;5.70;99.90
21678;DHT22;11000;50.360;7.582;2024-02-28T09:26:41;5.70;99.90
21678;DHT22;11000;50.360;7.582;2024-02-28T09:29:01;5.80;99.90
21678;DHT22;11000;50.360;7.582;2024-02-28T09:31:22;5.80;99.90
21678;DHT22;11000;50.360;7.582;2024-02-28T09:33:42;5.90;99.90
21678;DHT22;11000;50.360;7.582;2024-02-28T09:36:04;6.00;99.90
21678;DHT22;11000;50.360;7.582;2024-02-28T09:38:24;5.90;99.90
21678;DHT22;11000;50.360;7.582;2024-02-28T09:40:48;5.80;99.90
21678;DHT22;11000;50.360;7.582;2024-02-28T09:43:15;5.80;99.90
21678;DHT22;11000;50.360;7.582;2024-02-28T09:45:37;5.90;99.90
21678;DHT22;11000;50.360;7.582;2024-02-28T09:47:59;5.90;99.90
21678;DHT22;11000;50.360;7.582;2024-02-28T09:50:20;6.00;99.90
21678;DHT22;11000;50.360;7.582;2024-02-28T09:52:42;6.10;99.90
21678;DHT22;11000;50.360;7.582;2024-02-28T09:55:02;6.00;99.90
21678;DHT22;11000;50.360;7.582;2024-02-28T09:57:23;6.00;99.90
21678;DHT22;11000;50.360;7.582;2024-02-28T09:59:48;6.20;99.90
21678;DHT22;11000;50.360;7.582;2024-02-28T10:02:10;6.30;99.90
21678;DHT22;11000;50.360;7.582;2024-02-28T10:04:32;6.30;99.90
21678;DHT22;11000;50.360;7.582;2024-02-28T10:06:53;6.40;99.90
21678;DHT22;11000;50.360;7.582;2024-02-28T10:09:14;6.40;99.90
21678;DHT22;11000;50.360;7.582;2024-02-28T10:11:35;6.30;99.90
21678;DHT22;11000;50.360;7.582;2024-02-28T10:13:55;6.20;99.90
21678;DHT22;11000;50.360;7.582;2024-02-28T10:16:16;6.30;99.90
21678;DHT22;11000;50.360;7.582;2024-02-28T10:18:37;6.40;99.90
21678;DHT22;11000;50.360;7.582;2024-02-28T10:20:57;6.60;99.90
21678;DHT22;11000;50.360;7.582;2024-02-28T10:23:18;6.60;99.90
21678;DHT22;11000;50.360;7.582;2024-02-28T10:25:48;6.50;99.90
21678;DHT22;11000;50.360;7.582;2024-02-28T10:28:09;6.30;99.90
21678;DHT22;11000;50.360;7.582;2024-02-28T10:30:30;6.30;99.90
21678;DHT22;11000;50.360;7.582;2024-02-28T10:32:50;6.40;99.90
21678;DHT22;11000;50.360;7.582;2024-02-28T10:35:11;6.40;99.90
21678;DHT22;11000;50.360;7.582;2024-02-28T10:37:32;6.40;99.90
21678;DHT22;11000;50.360;7.582;2024-02-28T10:39:54;6.50;99.90
21678;DHT22;11000;50.360;7.582;2024-02-28T10:42:16;6.70;99.90
21678;DHT22;11000;50.360;7.582;2024-02-28T10:44:36;6.60;99.90
21678;DHT22;11000;50.360;7.582;2024-02-28T10:46:59;6.70;99.90
21678;DHT22;11000;50.360;7.582;2024-02-28T10:49:20;6.70;99.90
21678;DHT22;11000;50.360;7.582;2024-02-28T10:51:45;6.80;99.90
21678;DHT22;11000;50.360;7.582;2024-02-28T10:54:10;6.90;99.90
21678;DHT22;11000;50.360;7.582;2024-02-28T10:56:34;6.70;99.90
21678;DHT22;11000;50.360;7.582;2024-02-28T10:58:57;6.60;99.90
21678;DHT22;11000;50.360;7.582;2024-02-28T11:01:19;6.30;99.90
21678;DHT22;11000;50.360;7.582;2024-02-28T11:03:40;6.50;99.90
21678;DHT22;11000;50.360;7.582;2024-02-28T11:06:00;6.50;99.90
21678;DHT22;11000;50.360;7.582;2024-02-28T11:08:22;6.30;99.90
21678;DHT22;11000;50.360;7.582;2024-02-28T11:10:43;6.50;99.90
21678;DHT22;11000;50.360;7.582;2024-02-28T11:13:06;6.40;99.90
21678;DHT22;11000;50.360;7.582;2024-02-28T11:15:27;6.60;99.90
21678;DHT22;11000;50.360;7.582;2024-02-28T11:17:50;6.70;99.90
21678;DHT22;11000;50.360;7.582;2024-02-28T11:20:12;6.80;99.90
21678;DHT22;11000;50.360;7.582;2024-02-28T11:22:33;7.00;99.90
21678;DHT22;11000;50.360;7.582;2024-02-28T11:24:56;7.50;99.90
21678;DHT22;11000;50.360;7.582;2024-02-28T11:27:16;7.90;99.90
21678;DHT22;11000;50.360;7.582;2024-02-28T11:29:37;8.20;99.90
21678;DHT22;11000;50.360;7.582;2024-02-28T11:31:57;8.20;99.90
21678;DHT22;11000;50.360;7.582;2024-02-28T11:34:18;8.20;99.90
21678;DHT22;11000;50.360;7.582;2024-02-28T11:36:38;8.10;99.90
21678;DHT22;11000;50.360;7.582;2024-02-28T11:39:01;7.50;99.90
21678;DHT22;11000;50.360;7.582;2024-02-28T11:41:27;7.00;99.90
21678;DHT22;11000;50.360;7.582;2024-02-28T11:43:48;6.80;99.90
21678;DHT22;11000;50.360;7.582;2024-02-28T11:46:09;6.80;99.90
21678;DHT22;11000;50.360;7.582;2024-02-28T11:48:33;7.00;99.90
21678;DHT22;11000;50.360;7.582;2024-02-28T11:50:54;7.30;99.90
21678;DHT22;11000;50.360;7.582;2024-02-28T11:53:14;7.50;99.90
21678;DHT22;11000;50.360;7.582;2024-02-28T11:55:35;7.20;99.90
21678;DHT22;11000;50.360;7.582;2024-02-28T11:57:56;7.30;99.90
21678;DHT22;11000;50.360;7.582;2024-02-28T12:00:16;7.20;99.90
21678;DHT22;11000;50.360;7.582;2024-02-28T12:02:37;7.20;99.90
21678;DHT22;11000;50.360;7.582;2024-02-28T12:05:04;7.30;99.90
21678;DHT22;11000;50.360;7.582;2024-02-28T12:07:25;7.70;99.90
21678;DHT22;11000;50.360;7.582;2024-02-28T12:09:46;7.80;99.90
21678;DHT22;11000;50.360;7.582;2024-02-28T12:12:08;7.80;99.90
21678;DHT22;11000;50.360;7.582;2024-02-28T12:14:35;7.80;99.90
21678;DHT22;11000;50.360;7.582;2024-02-28T12:16:57;8.00;99.90
21678;DHT22;11000;50.360;7.582;2024-02-28T12:19:18;7.80;99.90
21678;DHT22;11000;50.360;7.582;2024-02-28T12:21:41;7.70;99.90
21678;DHT22;11000;50.360;7.582;2024-02-28T12:24:01;8.00;99.90
21678;DHT22;11000;50.360;7.582;2024-02-28T12:26:21;7.90;99.90
21678;DHT22;11000;50.360;7.582;2024-02-28T12:28:42;7.90;99.90
21678;DHT22;11000;50.360;7.582;2024-02-28T12:31:03;7.90;99.90
21678;DHT22;11000;50.360;7.582;2024-02-28T12:33:25;8.10;99.90
21678;DHT22;11000;50.360;7.582;2024-02-28T12:35:45;8.40;99.90
21678;DHT22;11000;50.360;7.582;2024-02-28T12:38:06;8.40;99.90
21678;DHT22;11000;50.360;7.582;2024-02-28T12:40:26;8.20;99.90
21678;DHT22;11000;50.360;7.582;2024-02-28T12:42:47;8.50;99.90
21678;DHT22;11000;50.360;7.582;2024-02-28T12:45:07;8.80;99.90
21678;DHT22;11000;50.360;7.582;2024-02-28T12:47:28;9.10;99.90
21678;DHT22;11000;50.360;7.582;2024-02-28T12:49:50;9.20;99.90
21678;DHT22;11000;50.360;7.582;2024-02-28T12:52:11;8.90;99.90
21678;DHT22;11000;50.360;7.582;2024-02-28T12:54:31;8.70;99.90
21678;DHT22;11000;50.360;7.582;2024-02-28T12:56:52;8.60;99.90
21678;DHT22;11000;50.360;7.582;2024-02-28T12:59:13;8.90;99.90
21678;DHT22;11000;50.360;7.582;2024-02-28T13:01:33;9.40;99.90
21678;DHT22;11000;50.360;7.582;2024-02-28T13:03:55;9.90;99.90
21678;DHT22;11000;50.360;7.582;2024-02-28T13:06:15;10.30;99.90
21678;DHT22;11000;50.360;7.582;2024-02-28T13:08:36;10.50;99.90
21678;DHT22;11000;50.360;7.582;2024-02-28T13:10:56;10.10;99.90
21678;DHT22;11000;50.360;7.582;2024-02-28T13:13:17;10.00;99.90
21678;DHT22;11000;50.360;7.582;2024-02-28T13:15:38;9.70;99.90
21678;DHT22;11000;50.360;7.582;2024-02-28T13:17:58;10.00;99.90
21678;DHT22;11000;50.360;7.582;2024-02-28T13:20:19;9.90;99.90
21678;DHT22;11000;50.360;7.582;2024-02-28T13:22:39;9.60;99.90
21678;DHT22;11000;50.360;7.582;2024-02-28T13:25:00;9.70;99.90
21678;DHT22;11000;50.360;7.582;2024-02-28T13:27:20;9.80;99.90
21678;DHT22;11000;50.360;7.582;2024-02-28T13:29:41;10.10;99.90
21678;DHT22;11000;50.360;7.582;2024-02-28T13:32:01;10.30;99.90
21678;DHT22;11000;50.360;7.582;2024-02-28T13:34:23;10.60;99.90
21678;DHT22;11000;50.360;7.582;2024-02-28T13:36:44;10.40;99.90
21678;DHT22;11000;50.360;7.582;2024-02-28T13:39:04;10.20;99.90
21678;DHT22;11000;50.360;7.582;2024-02-28T13:41:25;10.40;99.90
21678;DHT22;11000;50.360;7.582;2024-02-28T13:43:45;10.90;99.90
21678;DHT22;11000;50.360;7.582;2024-02-28T13:46:06;11.20;99.90
21678;DHT22;11000;50.360;7.582;2024-02-28T13:48:27;11.60;99.90
21678;DHT22;11000;50.360;7.582;2024-02-28T13:50:52;11.10;99.90
21678;DHT22;11000;50.360;7.582;2024-02-28T13:53:13;10.80;99.90
21678;DHT22;11000;50.360;7.582;2024-02-28T13:55:34;11.20;99.90
21678;DHT22;11000;50.360;7.582;2024-02-28T13:57:55;11.60;99.90
21678;DHT22;11000;50.360;7.582;2024-02-28T14:00:15;11.90;99.90
21678;DHT22;11000;50.360;7.582;2024-02-28T14:02:36;12.20;99.90
21678;DHT22;11000;50.360;7.582;2024-02-28T14:04:56;12.30;99.90
21678;DHT22;11000;50.360;7.582;2024-02-28T14:07:17;11.50;99.90
21678;DHT22;11000;50.360;7.582;2024-02-28T14:09:37;11.00;99.90
21678;DHT22;11000;50.360;7.582;2024-02-28T14:11:58;10.80;99.90
21678;DHT22;11000;50.360;7.582;2024-02-28T14:14:19;10.70;99.90
21678;DHT22;11000;50.360;7.582;2024-02-28T14:16:39;10.80;99.90
21678;DHT22;11000;50.360;7.582;2024-02-28T14:19:00;11.20;99.90
21678;DHT22;11000;50.360;7.582;2024-02-28T14:21:20;11.70;99.90
21678;DHT22;11000;50.360;7.582;2024-02-28T14:23:42;11.40;99.90
21678;DHT22;11000;50.360;7.582;2024-02-28T14:26:03;11.30;99.90
21678;DHT22;11000;50.360;7.582;2024-02-28T14:28:24;11.40;99.90
21678;DHT22;11000;50.360;7.582;2024-02-28T14:30:44;11.30;99.90
21678;DHT22;11000;50.360;7.582;2024-02-28T14:33:07;11.60;99.90
21678;DHT22;11000;50.360;7.582;2024-02-28T14:35:28;11.80;99.90
21678;DHT22;11000;50.360;7.582;2024-02-28T14:37:49;12.00;99.90
21678;DHT22;11000;50.360;7.582;2024-02-28T14:40:10;12.20;99.90
21678;DHT22;11000;50.360;7.582;2024-02-28T14:42:30;12.50;99.90
21678;DHT22;11000;50.360;7.582;2024-02-28T14:44:51;12.60;99.90
21678;DHT22;11000;50.360;7.582;2024-02-28T14:47:13;12.50;99.90
21678;DHT22;11000;50.360;7.582;2024-02-28T14:49:34;12.50;99.90
21678;DHT22;11000;50.360;7.582;2024-02-28T14:51:54;12.50;99.90
21678;DHT22;11000;50.360;7.582;2024-02-28T14:54:16;12.40;99.90
21678;DHT22;11000;50.360;7.582;2024-02-28T14:56:36;11.90;99.90
21678;DHT22;11000;50.360;7.582;2024-02-28T14:58:58;11.80;99.90
21678;DHT22;11000;50.360;7.582;2024-02-28T15:01:18;11.80;99.90
21678;DHT22;11000;50.360;7.582;2024-02-28T15:03:39;11.90;99.90